Time;durP1;ratioP1;P1;durP2;ratioP2;P2;SDS_P1;SDS_P2;PMS_P1;PMS_P2;Temp;Humidity;BMP_temperature;BMP_pressure;BME280_temperature;BME280_humidity;BME280_pressure;Samples;Min_cycle;Max_cycle;Signal;HPM_P1;HPM_P2
2022/09/21 00:01:52;;;;;;;6.15;4.18;;;;;;;6.65;100.00;93263.44;5111716;28;20047;-71
2022/09/21 00:04:19;;;;;;;5.25;4.03;;;;;;;6.60;100.00;93268.28;5112706;28;20052;-71
2022/09/21 00:06:46;;;;;;;8.40;4.70;;;;;;;6.47;100.00;93260.53;5112785;28;20055;-71
2022/09/21 00:09:13;;;;;;;5.20;3.92;;;;;;;6.52;100.00;93250.53;5111216;28;20048;-71
2022/09/21 00:11:40;;;;;;;5.13;4.28;;;;;;;6.35;100.00;93268.66;5092053;28;20044;-71
2022/09/21 00:14:09;;;;;;;5.88;4.20;;;;;;;6.54;100.00;93259.59;5092223;28;20070;-71
2022/09/21 00:16:38;;;;;;;5.47;4.40;;;;;;;6.66;100.00;93254.00;5092168;28;20113;-71
2022/09/21 00:19:05;;;;;;;7.35;4.82;;;;;;;6.75;100.00;93270.00;5109223;28;20044;-72
2022/09/21 00:21:33;;;;;;;6.00;4.45;;;;;;;6.83;100.00;93259.63;5112648;28;20540;-71
2022/09/21 00:24:01;;;;;;;5.40;4.35;;;;;;;6.80;100.00;93258.25;5112205;28;20123;-72
2022/09/21 00:26:28;;;;;;;5.05;4.50;;;;;;;6.88;100.00;93249.66;5111785;28;20043;-71
2022/09/21 00:28:56;;;;;;;4.80;4.05;;;;;;;6.80;100.00;93258.25;5112302;28;20048;-71
2022/09/21 00:31:23;;;;;;;5.53;4.13;;;;;;;6.84;100.00;93248.44;5112247;28;20543;-71
2022/09/21 00:33:52;;;;;;;4.63;3.90;;;;;;;6.95;100.00;93253.03;5112321;28;20047;-71
2022/09/21 00:36:20;;;;;;;5.40;4.28;;;;;;;7.00;100.00;93249.94;5112312;28;20096;-72
2022/09/21 00:38:50;;;;;;;5.10;4.00;;;;;;;7.04;100.00;93256.25;5112378;28;20051;-71
2022/09/21 00:41:17;;;;;;;5.80;4.30;;;;;;;7.02;100.00;93257.41;5112059;28;20047;-72
2022/09/21 00:43:47;;;;;;;5.43;4.22;;;;;;;7.03;100.00;93257.22;5111902;28;20043;-71
2022/09/21 00:46:22;;;;;;;5.25;4.05;;;;;;;7.01;100.00;93256.63;5112457;28;20096;-71
2022/09/21 00:48:49;;;;;;;5.35;3.95;;;;;;;7.04;100.00;93258.78;5111422;28;20044;-71
2022/09/21 00:51:18;;;;;;;6.43;4.13;;;;;;;6.99;100.00;93245.78;5111494;28;20043;-72
2022/09/21 00:53:46;;;;;;;5.55;3.40;;;;;;;7.04;100.00;93253.69;5112167;28;20473;-72
2022/09/21 00:56:15;;;;;;;4.43;3.55;;;;;;;7.03;100.00;93244.44;5111994;28;20048;-72
2022/09/21 00:58:46;;;;;;;4.85;3.40;;;;;;;7.04;100.00;93246.03;5111922;28;20047;-72
2022/09/21 01:01:16;;;;;;;6.07;4.80;;;;;;;7.02;100.00;93250.53;5111754;28;20047;-72
2022/09/21 01:03:44;;;;;;;5.60;4.38;;;;;;;7.03;100.00;93256.44;5111765;28;20102;-72
2022/09/21 01:06:12;;;;;;;10.30;5.75;;;;;;;7.00;100.00;93247.41;5111747;28;20112;-71
2022/09/21 01:08:42;;;;;;;8.70;4.97;;;;;;;6.93;100.00;93252.44;5109018;28;20050;-71
2022/09/21 01:11:27;;;;;;;7.30;5.03;;;;;;;6.87;100.00;93249.84;5111295;28;20059;-71
2022/09/21 01:14:18;;;;;;;9.38;4.97;;;;;;;6.91;100.00;93244.16;5111679;28;20043;-71
2022/09/21 01:16:53;;;;;;;7.47;5.13;;;;;;;6.91;100.00;93258.72;5111580;28;20052;-72
2022/09/21 01:19:42;;;;;;;7.82;4.53;;;;;;;6.89;100.00;93253.00;5111489;28;20040;-72
2022/09/21 01:22:17;;;;;;;9.95;5.57;;;;;;;6.89;100.00;93248.69;5111327;28;20071;-72
2022/09/21 01:24:59;;;;;;;12.23;5.35;;;;;;;6.82;100.00;93250.41;5111386;28;20167;-72
2022/09/21 01:27:53;;;;;;;10.15;6.25;;;;;;;6.76;100.00;93240.94;5111547;28;20444;-72
2022/09/21 01:30:23;;;;;;;11.00;5.35;;;;;;;6.62;100.00;93235.72;5111153;28;20506;-71
2022/09/21 01:32:56;;;;;;;11.77;6.65;;;;;;;6.69;100.00;93240.88;5111134;28;20048;-71
2022/09/21 01:35:27;;;;;;;10.88;6.00;;;;;;;6.60;100.00;93231.75;5108439;28;20051;-71
2022/09/21 01:37:58;;;;;;;10.00;5.13;;;;;;;6.62;100.00;93224.72;5111372;28;20047;-71
2022/09/21 01:40:29;;;;;;;10.80;5.65;;;;;;;6.69;100.00;93238.31;5110935;28;20036;-71
2022/09/21 01:42:59;;;;;;;10.73;6.07;;;;;;;6.68;100.00;93236.75;5110860;28;20052;-71
2022/09/21 01:45:31;;;;;;;9.65;5.75;;;;;;;6.66;100.00;93233.56;5110811;28;20495;-71
2022/09/21 01:48:01;;;;;;;8.25;5.35;;;;;;;6.61;100.00;93225.72;5110929;28;20073;-71
2022/09/21 01:50:33;;;;;;;7.63;5.35;;;;;;;6.66;100.00;93234.38;5111074;28;20044;-71
2022/09/21 01:53:06;;;;;;;6.97;4.30;;;;;;;6.60;100.00;93239.41;5110712;28;20494;-71
2022/09/21 01:55:38;;;;;;;7.65;4.72;;;;;;;6.62;100.00;93227.28;5110954;28;20108;-72
2022/09/21 01:58:12;;;;;;;7.70;4.40;;;;;;;6.55;100.00;93224.66;5110586;28;20093;-72
2022/09/21 02:00:41;;;;;;;5.30;3.90;;;;;;;6.53;100.00;93229.19;5110433;28;20363;-72
2022/09/21 02:03:14;;;;;;;6.70;4.53;;;;;;;6.55;100.00;93230.56;5110498;28;20047;-71
2022/09/21 02:05:42;;;;;;;9.93;6.05;;;;;;;6.52;100.00;93230.94;5110624;28;20048;-72
2022/09/21 02:08:10;;;;;;;12.52;7.38;;;;;;;6.51;100.00;93229.34;5110162;28;20491;-73
2022/09/21 02:10:42;;;;;;;13.65;7.78;;;;;;;6.56;100.00;93231.34;5110598;28;20084;-72
2022/09/21 02:13:10;;;;;;;14.77;7.78;;;;;;;6.57;100.00;93230.38;5110064;28;20404;-72
2022/09/21 02:15:48;;;;;;;13.85;7.55;;;;;;;6.57;100.00;93229.59;5110644;28;20059;-71
2022/09/21 02:18:27;;;;;;;16.85;8.27;;;;;;;6.55;100.00;93234.88;5110556;28;20040;-71
2022/09/21 02:20:58;;;;;;;16.08;8.68;;;;;;;6.51;100.00;93233.66;5110026;28;20043;-71
2022/09/21 02:23:33;;;;;;;14.27;7.22;;;;;;;6.48;100.00;93231.47;5110137;28;20491;-71
2022/09/21 02:26:05;;;;;;;12.50;6.57;;;;;;;6.47;100.00;93235.78;5109918;28;20639;-71
2022/09/21 02:28:39;;;;;;;14.10;7.15;;;;;;;6.47;100.00;93227.34;5110206;28;20332;-71
2022/09/21 02:31:13;;;;;;;12.80;7.03;;;;;;;6.44;100.00;93227.72;5110045;28;20040;-71
2022/09/21 02:33:47;;;;;;;16.17;7.43;;;;;;;6.40;100.00;93234.94;5110103;28;20070;-71
2022/09/21 02:36:21;;;;;;;14.57;7.32;;;;;;;6.34;100.00;93233.91;5110113;28;20051;-71
2022/09/21 02:38:53;;;;;;;14.70;6.75;;;;;;;6.32;100.00;93237.59;5109668;28;20052;-71
2022/09/21 02:41:24;;;;;;;11.88;7.03;;;;;;;6.30;100.00;93232.72;5110142;28;20039;-71
2022/09/21 02:44:00;;;;;;;11.98;6.53;;;;;;;6.25;100.00;93230.69;5109883;28;20437;-71
2022/09/21 02:46:33;;;;;;;11.38;6.65;;;;;;;6.24;100.00;93239.31;5109616;28;20053;-71
2022/09/21 02:49:08;;;;;;;14.02;7.22;;;;;;;6.15;100.00;93233.53;5110029;28;20167;-71
2022/09/21 02:51:38;;;;;;;10.95;6.78;;;;;;;6.14;100.00;93234.53;5109673;28;20597;-71
2022/09/21 02:54:11;;;;;;;13.63;7.50;;;;;;;6.05;100.00;93227.94;5109914;28;20096;-71
2022/09/21 02:56:39;;;;;;;11.23;6.70;;;;;;;6.07;100.00;93233.66;5109781;28;20035;-71
2022/09/21 02:59:07;;;;;;;12.65;7.13;;;;;;;6.03;100.00;93235.00;5109481;28;20499;-71
2022/09/21 03:01:35;;;;;;;15.20;6.75;;;;;;;5.94;100.00;93226.66;5109387;28;20051;-71
2022/09/21 03:04:02;;;;;;;13.77;6.78;;;;;;;5.98;100.00;93237.28;5109541;28;20453;-71
2022/09/21 03:06:30;;;;;;;13.95;6.85;;;;;;;5.96;100.00;93237.44;5109071;28;20044;-71
2022/09/21 03:08:57;;;;;;;13.30;6.72;;;;;;;5.91;100.00;93232.09;5109573;28;20047;-71
2022/09/21 03:11:24;;;;;;;8.52;5.85;;;;;;;5.85;100.00;93231.06;5109622;28;20043;-72
2022/09/21 03:13:51;;;;;;;11.40;6.00;;;;;;;5.85;100.00;93230.25;5108684;28;20088;-71
2022/09/21 03:16:18;;;;;;;12.70;6.57;;;;;;;5.82;100.00;93226.31;5109368;28;20811;-71
2022/09/21 03:18:46;;;;;;;13.65;6.70;;;;;;;5.73;100.00;93237.56;5109083;28;20483;-71
2022/09/21 03:21:13;;;;;;;11.55;6.20;;;;;;;5.68;100.00;93219.47;5109113;28;20080;-71
2022/09/21 03:23:40;;;;;;;11.77;6.10;;;;;;;5.67;100.00;93234.00;5109090;28;20502;-71
2022/09/21 03:26:07;;;;;;;10.75;6.07;;;;;;;5.70;100.00;93227.75;5108922;28;20552;-71
2022/09/21 03:28:34;;;;;;;13.57;6.50;;;;;;;5.67;100.00;93234.00;5109417;28;20096;-71
2022/09/21 03:31:01;;;;;;;11.27;5.78;;;;;;;5.67;100.00;93233.19;5108904;28;20547;-71
2022/09/21 03:33:27;;;;;;;13.43;6.55;;;;;;;5.68;100.00;93233.03;5108958;28;20570;-71
2022/09/21 03:35:56;;;;;;;10.63;6.50;;;;;;;5.62;100.00;93229.41;5109107;28;20043;-71
2022/09/21 03:38:23;;;;;;;12.88;7.18;;;;;;;5.38;100.00;93229.72;5108915;28;20048;-71
2022/09/21 03:40:50;;;;;;;10.98;7.80;;;;;;;5.30;100.00;93238.25;5109124;28;20476;-71
2022/09/21 03:43:18;;;;;;;12.38;8.73;;;;;;;5.13;100.00;93230.00;5109212;28;20440;-71
2022/09/21 03:45:45;;;;;;;9.70;6.72;;;;;;;5.11;100.00;93237.81;5108459;28;20494;-71
2022/09/21 03:48:14;;;;;;;8.57;6.72;;;;;;;4.97;100.00;93246.22;5109398;28;20058;-71
2022/09/21 03:50:41;;;;;;;7.63;5.60;;;;;;;4.70;100.00;93246.63;5109089;28;20126;-71
2022/09/21 03:53:10;;;;;;;7.40;5.50;;;;;;;4.74;100.00;93250.41;5108838;28;20047;-71
2022/09/21 03:55:37;;;;;;;8.23;4.72;;;;;;;4.72;100.00;93242.13;5108884;28;20043;-71
2022/09/21 03:58:04;;;;;;;7.22;4.70;;;;;;;4.83;100.00;93246.03;5109017;28;20040;-71
2022/09/21 04:00:31;;;;;;;7.85;4.13;;;;;;;4.86;100.00;93248.22;5108785;28;20085;-71
2022/09/21 04:02:58;;;;;;;5.93;4.18;;;;;;;4.90;100.00;93233.38;5109005;28;20044;-71
2022/09/21 04:05:24;;;;;;;6.07;4.30;;;;;;;4.98;100.00;93252.88;5108833;28;20051;-71
2022/09/21 04:07:51;;;;;;;6.72;4.07;;;;;;;5.03;100.00;93242.97;5108484;28;20051;-71
2022/09/21 04:10:25;;;;;;;4.97;3.42;;;;;;;4.94;100.00;93248.16;5109202;28;20052;-71
2022/09/21 04:12:56;;;;;;;5.13;3.45;;;;;;;5.06;100.00;93251.03;5109221;28;20043;-71
2022/09/21 04:15:23;;;;;;;5.32;3.90;;;;;;;5.03;100.00;93255.69;5108819;28;20044;-71
2022/09/21 04:17:51;;;;;;;8.38;4.60;;;;;;;4.98;100.00;93257.97;5108654;28;20339;-70
2022/09/21 04:20:18;;;;;;;5.60;3.88;;;;;;;4.99;100.00;93257.81;5108975;28;20043;-71
2022/09/21 04:22:45;;;;;;;5.90;3.92;;;;;;;5.00;100.00;93251.75;5123733;28;20047;-71
2022/09/21 04:25:12;;;;;;;6.88;5.03;;;;;;;5.05;100.00;93263.97;5132954;27;20104;-71
2022/09/21 04:27:41;;;;;;;8.02;5.55;;;;;;;5.07;100.00;93262.84;5133410;27;20392;-70
2022/09/21 04:30:10;;;;;;;9.63;6.40;;;;;;;5.12;100.00;93259.75;5133258;27;20104;-71
2022/09/21 04:32:37;;;;;;;19.75;14.68;;;;;;;5.12;100.00;93264.84;5133443;27;20107;-71
2022/09/21 04:35:04;;;;;;;75.93;43.75;;;;;;;5.16;100.00;93263.53;5133406;27;20448;-71
2022/09/21 04:37:31;;;;;;;38.60;20.70;;;;;;;5.17;100.00;93269.41;5133183;27;20120;-71
2022/09/21 04:39:58;;;;;;;36.17;21.20;;;;;;;5.20;100.00;93279.25;5133254;27;20468;-72
2022/09/21 04:42:26;;;;;;;21.58;13.38;;;;;;;5.20;100.00;93274.16;5132970;27;20039;-72
2022/09/21 04:44:54;;;;;;;22.15;12.93;;;;;;;5.24;100.00;93269.50;5133023;27;20477;-72
2022/09/21 04:47:22;;;;;;;22.70;13.05;;;;;;;5.21;100.00;93271.44;5132880;27;20487;-73
2022/09/21 04:49:49;;;;;;;19.13;11.13;;;;;;;5.03;100.00;93248.88;5133050;27;20046;-72
2022/09/21 04:52:16;;;;;;;20.33;11.82;;;;;;;5.19;100.00;93272.59;5133050;27;20514;-71
2022/09/21 04:54:43;;;;;;;22.13;11.55;;;;;;;5.19;100.00;93267.50;5133059;27;20077;-71
2022/09/21 04:57:09;;;;;;;27.08;13.07;;;;;;;5.21;100.00;93266.34;5133109;27;20043;-71
2022/09/21 04:59:36;;;;;;;24.55;14.10;;;;;;;5.27;100.00;93269.94;5101974;27;20036;-71
2022/09/21 05:02:05;;;;;;;24.58;12.43;;;;;;;5.18;100.00;93253.16;5123772;27;20058;-71
2022/09/21 05:04:31;;;;;;;18.58;11.10;;;;;;;5.34;100.00;93277.69;5132457;27;20054;-72
2022/09/21 05:06:58;;;;;;;17.70;9.98;;;;;;;5.33;100.00;93276.09;5132561;27;20047;-71
2022/09/21 05:12:10;;;;;;;21.55;10.23;;;;;;;5.32;100.00;93285.50;5132163;27;20062;-71
2022/09/21 05:14:36;;;;;;;14.10;8.77;;;;;;;5.32;100.00;93282.16;5132611;27;20047;-71
2022/09/21 05:17:04;;;;;;;17.17;8.73;;;;;;;5.37;100.00;93284.97;5132658;27;20384;-71
2022/09/21 05:19:31;;;;;;;20.90;10.45;;;;;;;5.44;100.00;93285.84;5125344;27;20047;-71
2022/09/21 05:21:58;;;;;;;14.75;8.88;;;;;;;5.47;100.00;93277.06;5124879;27;20051;-71
2022/09/21 05:24:24;;;;;;;15.40;9.35;;;;;;;5.57;100.00;93274.25;5132212;27;20031;-71
2022/09/21 05:26:51;;;;;;;15.27;8.50;;;;;;;5.65;100.00;93273.38;5131784;27;20503;-72
2022/09/21 05:29:18;;;;;;;15.27;7.75;;;;;;;5.74;100.00;93268.00;5132198;27;20043;-71
2022/09/21 05:31:48;;;;;;;17.33;8.13;;;;;;;5.79;100.00;93271.78;5132414;27;20043;-71
2022/09/21 05:34:26;;;;;;;22.08;10.55;;;;;;;5.83;100.00;93267.91;5132015;27;20426;-71
2022/09/21 05:37:03;;;;;;;23.98;13.93;;;;;;;5.88;100.00;93274.03;5131242;27;20051;-71
2022/09/21 05:39:30;;;;;;;21.30;11.15;;;;;;;5.93;100.00;93263.28;5131862;27;20051;-71
2022/09/21 05:41:57;;;;;;;21.85;11.35;;;;;;;6.03;100.00;93270.69;5132071;27;20111;-71
2022/09/21 05:44:25;;;;;;;22.92;10.75;;;;;;;6.11;100.00;93268.03;5130256;27;20093;-71
2022/09/21 05:46:58;;;;;;;57.95;36.38;;;;;;;6.20;100.00;93270.47;5122318;27;20104;-71
2022/09/21 05:49:35;;;;;;;35.10;23.52;;;;;;;6.30;100.00;93270.97;5113208;27;20044;-72
2022/09/21 05:52:07;;;;;;;16.65;9.40;;;;;;;6.33;100.00;93273.16;5131916;27;20043;-71
2022/09/21 05:54:46;;;;;;;17.45;12.40;;;;;;;6.40;100.00;93268.88;5128181;27;20079;-71
2022/09/21 05:57:19;;;;;;;21.40;14.27;;;;;;;6.34;100.00;93261.19;5131860;27;20447;-72
2022/09/21 05:59:56;;;;;;;19.67;12.25;;;;;;;6.46;100.00;93264.03;5131310;27;20069;-71
2022/09/21 06:02:34;;;;;;;21.80;14.55;;;;;;;6.66;100.00;93274.41;5131579;27;20051;-71
2022/09/21 06:05:05;;;;;;;21.27;14.40;;;;;;;6.81;100.00;93271.81;5131248;27;20043;-71
2022/09/21 06:07:32;;;;;;;23.50;13.88;;;;;;;6.97;100.00;93273.28;5131391;27;20181;-71
2022/09/21 06:09:59;;;;;;;22.88;14.23;;;;;;;7.16;100.00;93282.06;5131354;27;20056;-71
2022/09/21 06:12:25;;;;;;;23.42;14.98;;;;;;;7.28;100.00;93276.44;5131064;27;20491;-71
2022/09/21 06:14:52;;;;;;;24.17;15.15;;;;;;;7.34;100.00;93271.38;5131195;27;20066;-71
2022/09/21 06:17:19;;;;;;;21.40;12.48;;;;;;;7.45;100.00;93279.50;5131307;27;20046;-72
2022/09/21 06:19:46;;;;;;;19.17;12.52;;;;;;;7.49;100.00;93286.59;5121919;27;20043;-71
2022/09/21 06:22:14;;;;;;;26.63;14.65;;;;;;;7.33;100.00;93277.44;5125807;27;20088;-71
2022/09/21 06:24:41;;;;;;;25.13;14.13;;;;;;;7.34;100.00;93279.03;5131219;27;20084;-72
2022/09/21 06:27:07;;;;;;;25.23;13.35;;;;;;;7.47;100.00;93283.44;5130642;27;20131;-71
2022/09/21 06:29:34;;;;;;;21.95;13.75;;;;;;;7.55;100.00;93289.38;5130915;27;20039;-71
2022/09/21 06:32:01;;;;;;;24.83;14.20;;;;;;;7.63;100.00;93286.66;5131026;27;20087;-72
2022/09/21 06:34:28;;;;;;;22.80;12.15;;;;;;;7.74;100.00;93298.13;5130370;27;20050;-71
2022/09/21 06:36:55;;;;;;;19.00;10.65;;;;;;;7.88;100.00;93296.41;5130972;27;20096;-71
2022/09/21 06:39:23;;;;;;;20.27;11.10;;;;;;;8.09;100.00;93298.06;5130976;27;20104;-71
2022/09/21 06:41:51;;;;;;;21.33;11.48;;;;;;;8.09;100.00;93274.25;5130761;27;20043;-71
2022/09/21 06:44:18;;;;;;;23.05;12.38;;;;;;;8.50;100.00;93306.63;5097388;27;20054;-72
2022/09/21 06:46:45;;;;;;;24.45;12.93;;;;;;;8.72;100.00;93306.50;5129515;27;20051;-71
2022/09/21 06:49:11;;;;;;;76.00;36.08;;;;;;;8.89;100.00;93299.22;5130086;27;20047;-71
2022/09/21 06:51:38;;;;;;;35.15;19.17;;;;;;;9.15;100.00;93302.78;5131004;27;20047;-71
2022/09/21 06:54:05;;;;;;;25.42;14.75;;;;;;;9.29;100.00;93303.56;5130371;27;20039;-72
2022/09/21 06:56:34;;;;;;;18.55;10.48;;;;;;;9.58;100.00;93309.22;5130182;27;20046;-72
2022/09/21 06:59:01;;;;;;;16.40;8.43;;;;;;;9.81;100.00;93305.41;5130562;27;20049;-72
2022/09/21 07:01:27;;;;;;;11.05;6.65;;;;;;;10.01;100.00;93304.56;5101773;27;20051;-72
2022/09/21 07:03:54;;;;;;;10.75;5.53;;;;;;;10.37;99.73;93302.44;5130100;27;20108;-71
2022/09/21 07:06:21;;;;;;;3.65;2.80;;;;;;;10.47;93.75;93310.50;5130542;27;20103;-71
2022/09/21 07:08:51;;;;;;;6.22;3.25;;;;;;;10.69;94.24;93303.25;5129950;27;20088;-71
2022/09/21 07:11:18;;;;;;;5.35;3.30;;;;;;;10.93;92.88;93303.47;5130388;27;20085;-71
2022/09/21 07:13:46;;;;;;;4.70;2.17;;;;;;;10.75;90.39;93308.56;5130243;27;20043;-72
2022/09/21 07:16:12;;;;;;;7.72;4.05;;;;;;;10.19;92.20;93306.47;5130014;27;20486;-72
2022/09/21 07:18:40;;;;;;;5.82;3.42;;;;;;;10.63;94.50;93290.44;5130454;27;20182;-71
2022/09/21 07:21:09;;;;;;;6.20;2.83;;;;;;;11.07;92.88;93298.25;5101550;27;20127;-72
2022/09/21 07:23:36;;;;;;;6.32;3.78;;;;;;;11.09;89.70;93311.69;5130410;27;20073;-72
2022/09/21 07:26:06;;;;;;;4.50;2.65;;;;;;;11.22;88.88;93296.13;5110026;27;20502;-72
2022/09/21 07:28:33;;;;;;;5.35;2.88;;;;;;;11.62;89.47;93297.56;5116510;27;20123;-71
2022/09/21 07:31:06;;;;;;;4.40;2.85;;;;;;;11.97;86.55;93303.94;5114775;28;20048;-72
2022/09/21 07:33:33;;;;;;;5.38;2.65;;;;;;;12.04;84.58;93311.59;5118660;28;20055;-73
2022/09/21 07:36:00;;;;;;;5.03;2.38;;;;;;;11.70;85.14;93300.84;5114222;28;20048;-72
2022/09/21 07:38:27;;;;;;;4.50;2.50;;;;;;;12.05;86.21;93304.66;5117029;28;20047;-72
2022/09/21 07:40:54;;;;;;;4.43;2.35;;;;;;;12.25;83.47;93310.38;5116970;28;20055;-72
2022/09/21 07:43:21;;;;;;;3.08;2.13;;;;;;;12.40;82.81;93304.81;5114469;28;20051;-72
2022/09/21 07:45:53;;;;;;;4.75;2.90;;;;;;;12.41;79.56;93311.53;5118730;28;20097;-71
2022/09/21 07:48:21;;;;;;;3.40;1.80;;;;;;;11.99;82.09;93311.44;5114375;28;20047;-72
2022/09/21 07:50:49;;;;;;;4.20;2.30;;;;;;;11.83;82.75;93313.59;5095425;28;20055;-72
2022/09/21 07:53:16;;;;;;;3.00;1.52;;;;;;;11.45;84.45;93312.78;5087987;28;20044;-72
2022/09/21 07:55:43;;;;;;;2.08;1.40;;;;;;;11.28;86.00;93309.94;5088563;28;20416;-72
2022/09/21 08:00:55;;;;;;;3.60;1.50;;;;;;;10.67;87.50;93307.81;5092209;28;20047;-72
2022/09/21 08:03:23;;;;;;;4.70;2.65;;;;;;;11.09;88.35;93304.75;5092830;28;20108;-72
2022/09/21 08:05:50;;;;;;;2.35;1.52;;;;;;;11.35;85.47;93302.94;5092090;28;20048;-72
2022/09/21 08:08:16;;;;;;;2.60;1.42;;;;;;;11.25;85.96;93305.22;5092059;28;20402;-72
2022/09/21 08:10:44;;;;;;;2.25;1.20;;;;;;;10.95;86.26;93306.66;5093247;28;20094;-72
2022/09/21 08:13:11;;;;;;;1.92;1.10;;;;;;;11.00;87.52;93310.34;5106653;27;20047;-70
2022/09/21 08:15:37;;;;;;;3.22;1.40;;;;;;;11.30;82.55;93302.78;5116005;27;20052;-71
2022/09/21 08:18:06;;;;;;;2.22;1.40;;;;;;;11.54;80.28;93308.13;5121402;27;20047;-71
2022/09/21 08:20:34;;;;;;;1.75;1.10;;;;;;;11.39;79.66;93308.44;5119123;27;20134;-70
2022/09/21 08:23:01;;;;;;;1.98;1.20;;;;;;;11.61;79.68;93300.34;5123140;27;20519;-71
2022/09/21 08:25:29;;;;;;;1.92;1.10;;;;;;;11.65;78.29;93305.84;5129641;27;20053;-70
2022/09/21 08:27:59;;;;;;;2.13;1.27;;;;;;;11.90;79.76;93308.38;5115727;27;20055;-70
2022/09/21 08:30:26;;;;;;;1.85;0.82;;;;;;;11.44;79.45;93305.25;5125717;27;20130;-71
2022/09/21 08:32:54;;;;;;;2.90;1.20;;;;;;;11.32;83.62;93300.81;5133086;27;20132;-71
2022/09/21 08:35:21;;;;;;;3.28;1.92;;;;;;;11.72;83.46;93296.28;5122234;27;20091;-70
2022/09/21 08:37:53;;;;;;;2.63;1.38;;;;;;;12.00;81.57;93300.91;5116516;27;20096;-71
2022/09/21 08:40:20;;;;;;;3.25;1.30;;;;;;;12.27;79.41;93295.47;5132784;27;20092;-71
2022/09/21 08:42:56;;;;;;;1.88;1.02;;;;;;;12.40;76.68;93299.66;5105788;27;20047;-71
2022/09/21 08:45:25;;;;;;;;;;;;;;;12.22;76.28;93297.13;5097165;28;20452;-71
2022/09/21 08:47:56;;;;;;;2.20;1.45;;;;;;;12.05;77.26;93278.91;5122224;27;19968;-71
2022/09/21 08:50:30;;;;;;;1.90;0.95;;;;;;;11.86;77.17;93291.78;5131438;27;20047;-71
2022/09/21 08:53:04;;;;;;;6.00;1.08;;;;;;;12.17;77.59;93284.91;5133138;27;20067;-71
2022/09/21 08:55:31;;;;;;;2.10;1.10;;;;;;;12.13;77.09;93284.53;5132626;27;20086;-71
2022/09/21 08:57:59;;;;;;;2.85;1.08;;;;;;;12.09;76.81;93288.53;5132443;27;20540;-71
2022/09/21 09:00:26;;;;;;;1.45;0.95;;;;;;;11.97;76.78;93282.53;5132261;27;20549;-71
2022/09/21 09:03:34;;;;;;;1.70;0.90;;;;;;;11.55;75.85;93283.97;5132281;27;20059;-71
2022/09/21 09:06:06;;;;;;;1.70;1.15;;;;;;;11.61;78.98;93290.03;5132280;27;20073;-70
2022/09/21 09:09:28;;;;;;;2.08;1.02;;;;;;;11.87;73.74;93283.84;5132423;27;20039;-71
2022/09/21 09:12:08;;;;;;;3.00;2.03;;;;;;;11.72;77.29;93278.25;5027698;28;20045;-70
2022/09/21 09:14:53;;;;;;;2.53;1.77;;;;;;;11.62;80.62;93273.63;5028880;28;20108;-71
2022/09/21 09:17:32;;;;;;;2.10;1.40;;;;;;;12.08;78.76;93276.69;5108771;27;20039;-71
2022/09/21 09:20:05;;;;;;;3.35;1.15;;;;;;;12.28;75.72;93273.84;5121201;27;20495;-71
2022/09/21 09:22:38;;;;;;;2.15;1.00;;;;;;;12.40;72.54;93273.91;5129670;27;20043;-71
2022/09/21 09:25:16;;;;;;;1.63;1.10;;;;;;;12.50;70.21;93275.19;5131862;27;20051;-71
2022/09/21 09:27:46;;;;;;;1.88;0.90;;;;;;;12.62;71.34;93264.88;5131826;27;20054;-71
2022/09/21 09:30:17;;;;;;;1.80;0.90;;;;;;;12.75;69.89;93272.44;5131790;27;20511;-71
2022/09/21 09:32:52;;;;;;;2.80;1.20;;;;;;;12.39;66.56;93266.38;5128009;27;20448;-71
2022/09/21 09:35:25;;;;;;;1.65;0.65;;;;;;;11.90;67.08;93280.81;5118172;27;20100;-71
2022/09/21 09:37:55;;;;;;;1.60;0.95;;;;;;;12.05;69.67;93266.03;5129716;27;20088;-71
2022/09/21 09:40:34;;;;;;;3.30;1.73;;;;;;;11.96;70.81;93271.47;5131977;27;20380;-71
2022/09/21 09:43:07;;;;;;;3.45;1.50;;;;;;;11.89;71.42;93265.59;5131844;27;20043;-71
2022/09/21 09:45:51;;;;;;;2.80;1.55;;;;;;;11.88;74.90;93261.44;5131982;27;20591;-71
2022/09/21 09:48:37;;;;;;;3.63;1.27;;;;;;;12.26;75.09;93257.84;5131680;27;20096;-71
2022/09/21 09:51:03;;;;;;;3.10;1.45;;;;;;;12.26;73.56;93254.47;5131615;27;20100;-71
2022/09/21 09:53:32;;;;;;;3.35;1.92;;;;;;;12.60;75.08;93256.59;5131349;27;20047;-71
2022/09/21 09:56:01;;;;;;;2.97;1.40;;;;;;;12.88;76.38;93244.88;5131711;27;20051;-71
2022/09/21 09:58:38;;;;;;;2.22;1.50;;;;;;;12.85;72.61;93240.94;5131388;27;20039;-71
2022/09/21 10:01:05;;;;;;;3.75;1.63;;;;;;;13.10;71.96;93245.09;5131376;27;20051;-71
2022/09/21 10:03:32;;;;;;;1.95;1.15;;;;;;;13.02;66.40;93242.88;5131049;27;20095;-71
2022/09/21 10:05:59;;;;;;;1.58;1.00;;;;;;;13.17;68.10;93243.22;5131121;27;20092;-71
2022/09/21 10:08:41;;;;;;;1.80;1.08;;;;;;;13.29;70.15;93238.03;5131353;27;20099;-71
2022/09/21 10:11:11;;;;;;;1.70;0.82;;;;;;;13.45;72.53;93225.47;5131050;27;20475;-71
2022/09/21 10:13:39;;;;;;;2.38;1.00;;;;;;;13.66;69.19;93229.25;5131328;27;20043;-71
2022/09/21 10:16:13;;;;;;;2.25;0.85;;;;;;;13.51;67.52;93234.91;5131334;27;20043;-71
2022/09/21 10:18:45;;;;;;;1.70;1.00;;;;;;;13.07;71.21;93222.38;5131175;27;20047;-71
2022/09/21 10:21:19;;;;;;;1.45;0.95;;;;;;;13.20;70.28;93229.84;5103069;27;20544;-71
2022/09/21 10:23:49;;;;;;;1.50;0.82;;;;;;;13.55;71.00;93219.75;5131252;27;20055;-71
2022/09/21 10:26:18;;;;;;;2.20;0.90;;;;;;;13.56;66.92;93237.59;5130852;27;20122;-71
2022/09/21 10:28:58;;;;;;;1.75;1.00;;;;;;;13.29;66.79;93217.41;5130983;27;20047;-71
2022/09/21 10:31:27;;;;;;;2.47;1.30;;;;;;;13.41;70.65;93224.34;5103893;27;20035;-71
2022/09/21 10:34:05;;;;;;;2.17;1.48;;;;;;;13.50;68.16;93220.44;5131286;27;20043;-71
2022/09/21 10:36:34;;;;;;;2.38;1.20;;;;;;;13.90;65.33;93211.16;5130465;27;20051;-71
2022/09/21 10:39:22;;;;;;;1.65;0.82;;;;;;;13.99;61.37;93229.66;5130823;27;20047;-71
2022/09/21 10:41:53;;;;;;;2.00;1.05;;;;;;;13.97;60.67;93229.88;5106542;27;20051;-71
2022/09/21 10:44:23;;;;;;;2.40;1.20;;;;;;;14.21;62.43;93224.59;5130690;27;20051;-71
2022/09/21 10:46:51;;;;;;;2.10;0.80;;;;;;;14.35;61.00;93221.75;5130507;27;20047;-71
2022/09/21 10:49:22;;;;;;;1.40;0.73;;;;;;;14.53;62.52;93212.97;5130610;27;20085;-71
2022/09/21 10:51:51;;;;;;;1.95;0.90;;;;;;;14.69;61.07;93211.44;5130617;27;20435;-71
2022/09/21 10:54:25;;;;;;;2.50;0.98;;;;;;;14.66;60.66;93217.06;5130661;27;20043;-71
2022/09/21 10:57:00;;;;;;;2.92;1.00;;;;;;;13.97;61.95;93205.81;5116130;27;20049;-71
2022/09/21 10:59:29;;;;;;;1.85;0.85;;;;;;;13.47;66.06;93213.94;5130732;27;20051;-71
2022/09/21 11:01:58;;;;;;;2.00;1.00;;;;;;;13.44;66.50;93204.06;5130624;27;20051;-70
2022/09/21 11:04:34;;;;;;;3.20;1.30;;;;;;;13.47;66.95;93201.03;5130317;27;20043;-71
2022/09/21 11:07:09;;;;;;;1.45;0.90;;;;;;;13.45;66.51;93194.50;5130157;27;20166;-71
2022/09/21 11:09:41;;;;;;;1.90;0.85;;;;;;;13.00;67.18;93191.53;5130459;27;20092;-71
2022/09/21 11:12:29;;;;;;;2.20;1.08;;;;;;;12.80;67.56;93194.44;5130177;27;20452;-71
2022/09/21 11:15:03;;;;;;;2.80;1.23;;;;;;;12.76;66.40;93196.69;5127083;27;20051;-71
2022/09/21 11:17:37;;;;;;;2.28;1.05;;;;;;;12.53;66.88;93189.69;5129850;27;20548;-71
2022/09/21 11:20:14;;;;;;;2.35;1.10;;;;;;;12.97;67.00;93189.41;5110452;27;20442;-71
2022/09/21 11:22:47;;;;;;;1.65;0.85;;;;;;;13.20;61.52;93198.91;5113052;27;20092;-71
2022/09/21 11:25:27;;;;;;;1.48;0.60;;;;;;;13.49;60.29;93185.34;5129136;27;20097;-71
2022/09/21 11:28:02;;;;;;;1.17;0.60;;;;;;;13.85;59.80;93180.84;5129843;27;20542;-71
2022/09/21 11:30:42;;;;;;;1.52;0.80;;;;;;;14.22;57.94;93202.94;5130126;27;20046;-71
2022/09/21 11:33:20;;;;;;;1.80;0.70;;;;;;;14.32;59.50;93184.25;5129443;27;20135;-71
2022/09/21 11:35:59;;;;;;;1.40;0.68;;;;;;;14.52;58.73;93185.56;5129655;28;20085;-71
2022/09/21 11:38:40;;;;;;;1.95;0.90;;;;;;;14.99;57.74;93174.13;5129568;28;20051;-71
2022/09/21 11:41:19;;;;;;;3.25;0.70;;;;;;;14.35;57.83;93173.41;5130040;28;20051;-71
2022/09/21 11:44:01;;;;;;;2.15;0.90;;;;;;;13.80;66.29;93162.66;5129581;28;20175;-71
2022/09/21 11:46:35;;;;;;;1.38;0.73;;;;;;;13.75;61.24;93168.53;5129837;28;20051;-72
2022/09/21 11:49:26;;;;;;;1.67;0.98;;;;;;;13.84;59.83;93186.25;5129589;28;20043;-71
2022/09/21 11:52:08;;;;;;;1.45;0.50;;;;;;;13.73;57.74;93180.91;5130113;28;20067;-71